createdAt,value
2022-10-09T00:00:22.103Z,101223.80
2022-10-09T00:02:58.773Z,101228.60
2022-10-09T00:05:36.012Z,101225.20
2022-10-09T00:08:12.840Z,101226.60
2022-10-09T00:10:53.023Z,101229.80
2022-10-09T00:13:30.091Z,101223.00
2022-10-09T00:16:12.307Z,101223.20
2022-10-09T00:18:48.933Z,101223.60
2022-10-09T00:21:29.078Z,101224.20
2022-10-09T00:24:09.016Z,101224.60
2022-10-09T00:26:46.135Z,101226.40
2022-10-09T00:29:22.798Z,101225.60
2022-10-09T00:31:59.846Z,101222.20
2022-10-09T00:34:37.503Z,101221.20
2022-10-09T00:37:15.060Z,101219.20
2022-10-09T00:39:51.842Z,101216.80
2022-10-09T00:42:28.610Z,101218.80
2022-10-09T00:45:07.127Z,101214.40
2022-10-09T00:47:48.742Z,101219.40
2022-10-09T00:50:30.466Z,101222.80
2022-10-09T00:53:07.183Z,101221.80
2022-10-09T00:55:46.182Z,101220.60
2022-10-09T00:58:24.479Z,101221.00
2022-10-09T01:01:01.136Z,101218.20
2022-10-09T01:03:37.596Z,101215.80
2022-10-09T01:06:25.593Z,101221.60
2022-10-09T01:09:13.814Z,101219.00
2022-10-09T01:12:03.024Z,101220.40
2022-10-09T01:14:46.716Z,101213.80
2022-10-09T01:17:31.894Z,101210.60
2022-10-09T01:20:38.673Z,101206.00
2022-10-09T01:23:54.789Z,101203.20
2022-10-09T01:27:09.088Z,101203.60
2022-10-09T01:29:52.031Z,101199.20
2022-10-09T01:32:34.803Z,101207.40
2022-10-09T01:35:17.312Z,101203.80
2022-10-09T01:37:58.465Z,101201.60
2022-10-09T01:40:36.663Z,101198.80
2022-10-09T01:43:13.372Z,101198.80
2022-10-09T01:45:51.753Z,101201.40
2022-10-09T01:48:30.684Z,101201.40
2022-10-09T01:51:10.969Z,101200.60
2022-10-09T01:53:50.676Z,101196.80
2022-10-09T01:56:31.414Z,101195.60
2022-10-09T01:59:16.076Z,101199.00
2022-10-09T02:01:54.975Z,101195.20
2022-10-09T02:04:35.311Z,101196.80
2022-10-09T02:07:13.295Z,101198.00
2022-10-09T02:09:51.613Z,101196.20
2022-10-09T02:12:34.089Z,101198.20
2022-10-09T02:15:14.430Z,101193.20
2022-10-09T02:17:56.063Z,101197.80
2022-10-09T02:20:39.086Z,101195.60
2022-10-09T02:23:18.329Z,101188.60
2022-10-09T02:25:56.239Z,101187.40
2022-10-09T02:28:33.506Z,101185.00
2022-10-09T02:31:20.405Z,101185.80
2022-10-09T02:34:03.741Z,101187.80
2022-10-09T02:36:40.469Z,101186.00
2022-10-09T02:39:17.629Z,101189.80
2022-10-09T02:41:54.330Z,101185.00
2022-10-09T02:44:32.479Z,101184.80
2022-10-09T02:47:08.837Z,101182.40
2022-10-09T02:49:45.476Z,101180.60
2022-10-09T02:52:22.814Z,101179.00
2022-10-09T02:54:59.789Z,101179.80
2022-10-09T02:57:36.537Z,101186.40
2022-10-09T03:00:20.994Z,101185.80
2022-10-09T03:02:57.598Z,101185.80
2022-10-09T03:05:34.106Z,101185.20
2022-10-09T03:08:10.988Z,101187.00
2022-10-09T03:10:48.323Z,101184.40
2022-10-09T03:13:25.615Z,101184.60
2022-10-09T03:16:07.183Z,101188.20
2022-10-09T03:18:44.022Z,101185.80
2022-10-09T03:21:23.269Z,101189.60
2022-10-09T03:23:59.599Z,101192.00
2022-10-09T03:26:35.928Z,101195.20
2022-10-09T03:29:12.750Z,101198.80
2022-10-09T03:31:53.447Z,101192.20
2022-10-09T03:34:30.105Z,101192.20
2022-10-09T03:37:06.108Z,101197.60
2022-10-09T03:39:42.671Z,101198.20
2022-10-09T03:42:20.166Z,101203.40
2022-10-09T03:44:56.506Z,101206.40
2022-10-09T03:47:33.612Z,101207.40
2022-10-09T03:50:14.083Z,101202.60
2022-10-09T03:52:51.981Z,101201.40
2022-10-09T03:55:28.670Z,101200.60
2022-10-09T03:58:05.570Z,101198.00
2022-10-09T04:00:42.328Z,101201.80
2022-10-09T04:03:18.967Z,101197.20
2022-10-09T04:05:55.441Z,101199.20
2022-10-09T04:08:32.857Z,101199.60
2022-10-09T04:11:09.441Z,101199.20
2022-10-09T04:13:45.346Z,101198.60
2022-10-09T04:16:22.614Z,101200.80
2022-10-09T04:18:59.685Z,101201.60
2022-10-09T04:21:36.780Z,101200.40
2022-10-09T04:24:15.099Z,101206.60
2022-10-09T04:26:52.137Z,101211.80
2022-10-09T04:29:28.743Z,101208.80
2022-10-09T04:32:05.419Z,101211.40
2022-10-09T04:34:42.963Z,101211.60
2022-10-09T04:37:20.367Z,101211.40
2022-10-09T04:39:57.076Z,101210.20
2022-10-09T04:42:34.823Z,101215.20
2022-10-09T04:45:16.125Z,101215.80
2022-10-09T04:47:52.230Z,101215.60
2022-10-09T04:50:28.863Z,101215.80
2022-10-09T04:53:09.678Z,101215.00
2022-10-09T04:55:49.566Z,101220.00
2022-10-09T04:58:26.257Z,101221.20
2022-10-09T05:01:03.580Z,101220.40
2022-10-09T05:03:41.189Z,101227.80
2022-10-09T05:06:20.072Z,101235.40
2022-10-09T05:08:57.776Z,101237.40
2022-10-09T05:11:40.403Z,101240.20
2022-10-09T05:14:19.327Z,101240.20
2022-10-09T05:17:13.010Z,101239.40
2022-10-09T05:19:50.391Z,101233.80
2022-10-09T05:22:26.877Z,101232.20
2022-10-09T05:25:04.524Z,101227.80
2022-10-09T05:27:42.492Z,101228.40
2022-10-09T05:30:21.680Z,101230.80
2022-10-09T05:32:59.107Z,101228.40
2022-10-09T05:35:35.967Z,101233.80
2022-10-09T05:38:12.326Z,101229.80
2022-10-09T05:40:59.259Z,101233.00
2022-10-09T05:43:38.526Z,101233.40
2022-10-09T05:46:18.956Z,101237.00
2022-10-09T05:49:01.023Z,101238.00
2022-10-09T05:51:40.212Z,101241.00
2022-10-09T05:54:20.850Z,101240.00
2022-10-09T05:56:58.158Z,101243.60
2022-10-09T05:59:35.626Z,101247.80
2022-10-09T06:02:12.563Z,101248.00
2022-10-09T06:04:49.275Z,101247.00
2022-10-09T06:07:26.261Z,101249.80
2022-10-09T06:10:02.830Z,101255.20
2022-10-09T06:12:39.127Z,101262.60
2022-10-09T06:15:18.903Z,101264.60
2022-10-09T06:17:56.300Z,101261.80
2022-10-09T06:20:33.488Z,101262.80
2022-10-09T06:23:10.015Z,101267.40
2022-10-09T06:25:56.430Z,101269.00
2022-10-09T06:28:32.429Z,101268.40
2022-10-09T06:31:13.718Z,101273.40
2022-10-09T06:33:52.769Z,101274.80
2022-10-09T06:36:31.997Z,101282.20
2022-10-09T06:39:09.795Z,101286.00
2022-10-09T06:41:47.359Z,101288.40
2022-10-09T06:44:38.809Z,101290.60
2022-10-09T06:47:15.332Z,101289.60
2022-10-09T06:49:52.596Z,101292.00
2022-10-09T06:52:29.204Z,101294.60
2022-10-09T06:55:05.688Z,101300.80
2022-10-09T06:57:42.712Z,101301.20
2022-10-09T07:00:23.086Z,101308.20
2022-10-09T07:03:00.297Z,101309.00
2022-10-09T07:05:37.314Z,101317.20
2022-10-09T07:08:14.075Z,101320.00
2022-10-09T07:10:51.250Z,101317.80
2022-10-09T07:13:27.677Z,101323.00
2022-10-09T07:16:05.294Z,101323.60
2022-10-09T07:18:44.266Z,101330.80
2022-10-09T07:21:20.892Z,101330.80
2022-10-09T07:23:58.025Z,101331.40
2022-10-09T07:26:37.083Z,101330.20
2022-10-09T07:29:16.070Z,101346.60
2022-10-09T07:31:52.602Z,101333.60
2022-10-09T07:34:30.769Z,101330.80
2022-10-09T07:37:07.811Z,101344.40
2022-10-09T07:39:45.122Z,101339.00
2022-10-09T07:42:21.529Z,101349.60
2022-10-09T07:44:58.536Z,101337.20
2022-10-09T07:47:35.556Z,101345.40
2022-10-09T07:50:15.646Z,101343.20
2022-10-09T07:52:51.922Z,101343.20
2022-10-09T07:55:28.396Z,101340.80
2022-10-09T07:58:05.259Z,101345.00
2022-10-09T08:00:42.704Z,101346.60
2022-10-09T08:03:19.492Z,101362.60
2022-10-09T08:06:02.230Z,101363.80
2022-10-09T08:08:39.447Z,101363.00
2022-10-09T08:11:19.575Z,101370.00
2022-10-09T08:13:56.209Z,101373.80
2022-10-09T08:16:34.239Z,101382.40
2022-10-09T08:19:09.844Z,101378.20
2022-10-09T08:21:45.952Z,101373.60
2022-10-09T08:24:23.354Z,101380.60
2022-10-09T08:26:59.232Z,101381.20
2022-10-09T08:29:40.025Z,101380.20
2022-10-09T08:32:16.972Z,101371.80
2022-10-09T08:34:54.191Z,101363.80
2022-10-09T08:37:31.332Z,101365.00
2022-10-09T08:40:09.840Z,101358.00
2022-10-09T08:42:52.335Z,101365.40
2022-10-09T08:45:29.899Z,101375.20
2022-10-09T08:48:15.495Z,101375.20
2022-10-09T08:50:57.281Z,101367.20
2022-10-09T08:53:47.450Z,101369.20
2022-10-09T08:56:26.539Z,101377.20
2022-10-09T08:59:03.944Z,101374.40
2022-10-09T09:01:49.377Z,101366.80
2022-10-09T09:04:55.176Z,101358.40
2022-10-09T09:07:43.490Z,101368.60
2022-10-09T09:10:32.494Z,101373.00
2022-10-09T09:13:19.867Z,101383.00
2022-10-09T09:16:03.730Z,101358.40
2022-10-09T09:18:53.058Z,101364.20
2022-10-09T09:21:49.802Z,101357.60
2022-10-09T09:24:36.313Z,101358.40
2022-10-09T09:27:20.317Z,101364.00
2022-10-09T09:30:02.706Z,101371.60
2022-10-09T09:32:41.874Z,101366.60
2022-10-09T09:35:31.218Z,101360.00
2022-10-09T09:38:08.214Z,101367.80
2022-10-09T09:40:47.232Z,101364.80
2022-10-09T09:43:29.032Z,101362.80
2022-10-09T09:46:12.743Z,101367.00
2022-10-09T09:48:51.291Z,101362.80
2022-10-09T09:51:32.398Z,101372.40
2022-10-09T09:54:20.998Z,101369.80
2022-10-09T09:57:12.341Z,101367.00
2022-10-09T09:59:51.623Z,101363.80
2022-10-09T10:02:29.634Z,101372.60
2022-10-09T10:05:17.841Z,101366.00
2022-10-09T10:07:55.143Z,101373.40
2022-10-09T10:10:32.869Z,101366.80
2022-10-09T10:13:09.058Z,101367.00
2022-10-09T10:15:54.888Z,101364.40
2022-10-09T10:18:40.483Z,101355.00
2022-10-09T10:21:21.378Z,101359.60
2022-10-09T10:24:04.969Z,101358.80
2022-10-09T10:26:46.344Z,101362.80
2022-10-09T10:29:27.609Z,101363.40
2022-10-09T10:32:15.863Z,101351.60
2022-10-09T10:34:59.854Z,101358.40
2022-10-09T10:37:49.722Z,101351.60
2022-10-09T10:40:33.404Z,101365.40
2022-10-09T10:43:28.933Z,101369.40
2022-10-09T10:46:20.849Z,101360.40
2022-10-09T10:48:57.657Z,101361.40
2022-10-09T10:52:12.891Z,101358.40
2022-10-09T10:54:57.922Z,101358.00
2022-10-09T10:57:47.995Z,101360.40
2022-10-09T11:00:26.700Z,101357.00
2022-10-09T11:03:39.942Z,101354.80
2022-10-09T11:06:28.112Z,101352.80
2022-10-09T11:09:18.063Z,101350.80
2022-10-09T11:12:04.464Z,101360.40
2022-10-09T11:14:54.770Z,101354.60
2022-10-09T11:17:48.087Z,101354.40
2022-10-09T11:21:09.056Z,101366.60
2022-10-09T11:24:08.662Z,101360.20
2022-10-09T11:27:03.217Z,101352.20
2022-10-09T11:29:48.103Z,101345.40
2022-10-09T11:32:33.640Z,101341.40
2022-10-09T11:35:21.151Z,101338.60
2022-10-09T11:38:08.082Z,101337.80
2022-10-09T11:40:48.674Z,101334.40
2022-10-09T11:44:03.633Z,101337.80
2022-10-09T11:46:54.779Z,101329.80
2022-10-09T11:49:49.398Z,101336.20
2022-10-09T11:52:40.878Z,101333.80
2022-10-09T11:55:39.777Z,101325.20
2022-10-09T11:58:27.931Z,101328.00
2022-10-09T12:01:24.793Z,101330.40
2022-10-09T12:04:12.903Z,101329.20
2022-10-09T12:07:00.035Z,101319.80
2022-10-09T12:09:42.750Z,101311.00
2022-10-09T12:12:28.481Z,101305.60
2022-10-09T12:15:25.779Z,101308.60
2022-10-09T12:18:02.565Z,101295.20
2022-10-09T12:20:51.657Z,101300.40
2022-10-09T12:23:35.204Z,101299.40
2022-10-09T12:26:15.414Z,101299.00
2022-10-09T12:28:58.323Z,101292.40
2022-10-09T12:31:39.526Z,101284.60
2022-10-09T12:34:26.321Z,101288.20
2022-10-09T12:37:18.928Z,101276.20
2022-10-09T12:39:56.445Z,101283.00
2022-10-09T12:42:32.923Z,101279.40
2022-10-09T12:45:17.970Z,101277.60
2022-10-09T12:47:56.109Z,101266.60
2022-10-09T12:50:36.752Z,101260.40
2022-10-09T12:53:20.207Z,101256.40
2022-10-09T12:56:01.111Z,101255.80
2022-10-09T12:58:42.306Z,101251.20
2022-10-09T13:01:22.843Z,101250.20
2022-10-09T13:04:04.628Z,101254.80
2022-10-09T13:06:51.852Z,101246.20
2022-10-09T13:09:36.112Z,101243.40
2022-10-09T13:12:24.888Z,101245.20
2022-10-09T13:15:05.658Z,101238.40
2022-10-09T13:17:46.510Z,101242.60
2022-10-09T13:20:35.427Z,101239.80
2022-10-09T13:23:25.783Z,101233.60
2022-10-09T13:26:03.805Z,101237.40
2022-10-09T13:28:40.957Z,101238.00
2022-10-09T13:31:19.169Z,101235.40
2022-10-09T13:33:55.305Z,101234.60
2022-10-09T13:36:32.858Z,101229.40
2022-10-09T13:39:09.291Z,101228.40
2022-10-09T13:41:47.133Z,101222.80
2022-10-09T13:44:23.049Z,101226.40
2022-10-09T13:46:59.624Z,101225.40
2022-10-09T13:49:36.992Z,101225.40
2022-10-09T13:52:13.592Z,101220.60
2022-10-09T13:54:50.497Z,101229.60
2022-10-09T13:57:27.440Z,101225.40
2022-10-09T14:00:05.184Z,101227.60
2022-10-09T14:02:48.564Z,101226.40
2022-10-09T14:05:27.375Z,101223.00
2022-10-09T14:08:04.228Z,101220.80
2022-10-09T14:10:42.334Z,101216.20
2022-10-09T14:13:20.325Z,101212.60
2022-10-09T14:15:56.322Z,101211.80
2022-10-09T14:18:34.325Z,101214.00
2022-10-09T14:21:17.664Z,101213.80
2022-10-09T14:23:58.242Z,101212.80
2022-10-09T14:26:34.417Z,101214.20
2022-10-09T14:29:11.693Z,101207.00
2022-10-09T14:31:48.686Z,101209.40
2022-10-09T14:34:25.420Z,101207.60
2022-10-09T14:37:04.973Z,101212.40
2022-10-09T14:39:47.449Z,101213.20
2022-10-09T14:42:24.433Z,101206.40
2022-10-09T14:45:02.457Z,101204.00
2022-10-09T14:47:38.932Z,101205.20
2022-10-09T14:50:17.477Z,101200.60
2022-10-09T14:52:54.348Z,101197.20
2022-10-09T14:55:30.752Z,101196.40
2022-10-09T14:58:07.255Z,101195.80
2022-10-09T15:00:50.094Z,101193.60
2022-10-09T15:03:26.668Z,101190.00
2022-10-09T15:06:06.490Z,101188.20
2022-10-09T15:08:44.931Z,101185.20
2022-10-09T15:11:21.773Z,101187.40
2022-10-09T15:13:58.194Z,101180.80
2022-10-09T15:16:35.300Z,101175.00
2022-10-09T15:19:11.934Z,101175.40
2022-10-09T15:21:49.186Z,101172.40
2022-10-09T15:24:28.088Z,101167.40
2022-10-09T15:27:04.868Z,101166.20
2022-10-09T15:29:41.479Z,101164.40
2022-10-09T15:32:18.102Z,101164.80
2022-10-09T15:34:55.585Z,101171.40
2022-10-09T15:37:33.181Z,101163.40
2022-10-09T15:40:13.339Z,101166.00
2022-10-09T15:42:52.737Z,101168.40
2022-10-09T15:45:30.145Z,101167.60
2022-10-09T15:48:06.949Z,101173.60
2022-10-09T15:50:46.726Z,101169.60
2022-10-09T15:53:25.141Z,101168.40
2022-10-09T15:56:06.081Z,101168.80
2022-10-09T15:58:42.849Z,101173.40
2022-10-09T16:01:20.949Z,101174.80
2022-10-09T16:03:57.859Z,101172.40
2022-10-09T16:06:34.270Z,101172.40
2022-10-09T16:09:11.959Z,101173.80
2022-10-09T16:11:48.919Z,101179.80
2022-10-09T16:14:25.773Z,101177.00
2022-10-09T16:17:03.945Z,101172.40
2022-10-09T16:19:41.221Z,101175.60
2022-10-09T16:22:18.798Z,101175.60
2022-10-09T16:24:56.374Z,101178.60
2022-10-09T16:27:34.529Z,101178.80
2022-10-09T16:30:14.199Z,101178.80
2022-10-09T16:32:52.323Z,101182.20
2022-10-09T16:35:28.893Z,101184.80
2022-10-09T16:38:06.346Z,101190.00
2022-10-09T16:41:07.358Z,101188.60
2022-10-09T16:43:45.343Z,101195.80
2022-10-09T16:46:25.910Z,101194.00
2022-10-09T16:49:32.340Z,101201.20
2022-10-09T16:52:08.693Z,101205.80
2022-10-09T16:54:45.417Z,101206.20
2022-10-09T16:57:22.149Z,101208.40
2022-10-09T16:59:58.633Z,101208.60
2022-10-09T17:02:35.318Z,101214.20
2022-10-09T17:05:14.338Z,101220.60
2022-10-09T17:07:51.642Z,101220.20
2022-10-09T17:10:28.716Z,101223.40
2022-10-09T17:13:05.834Z,101223.40
2022-10-09T17:15:43.972Z,101221.20
2022-10-09T17:18:20.434Z,101223.60
2022-10-09T17:20:57.136Z,101222.20
2022-10-09T17:23:33.413Z,101222.80
2022-10-09T17:26:14.286Z,101234.00
2022-10-09T17:28:51.110Z,101230.00
2022-10-09T17:31:29.935Z,101224.20
2022-10-09T17:34:06.835Z,101238.60
2022-10-09T17:36:46.491Z,101231.00
2022-10-09T17:39:24.671Z,101227.60
2022-10-09T17:42:01.201Z,101230.40
2022-10-09T17:44:36.729Z,101231.40
2022-10-09T17:47:13.275Z,101230.60
2022-10-09T17:49:50.155Z,101230.40
2022-10-09T17:52:27.138Z,101235.00
2022-10-09T17:55:05.712Z,101231.20
2022-10-09T17:57:42.411Z,101235.60
2022-10-09T18:00:24.842Z,101238.60
2022-10-09T18:03:02.675Z,101244.40
2022-10-09T18:05:44.767Z,101242.80
2022-10-09T18:08:22.620Z,101247.60
2022-10-09T18:11:09.597Z,101249.60
2022-10-09T18:13:47.867Z,101249.40
2022-10-09T18:16:35.793Z,101255.60
2022-10-09T18:19:16.303Z,101262.60
2022-10-09T18:21:55.686Z,101266.80
2022-10-09T18:24:32.560Z,101270.80
2022-10-09T18:27:08.870Z,101273.40
2022-10-09T18:29:46.430Z,101277.80
2022-10-09T18:32:23.018Z,101276.40
2022-10-09T18:34:59.322Z,101280.20
2022-10-09T18:37:36.554Z,101277.80
2022-10-09T18:40:15.422Z,101281.20
2022-10-09T18:42:53.054Z,101283.00
2022-10-09T18:45:29.897Z,101279.80
2022-10-09T18:48:06.834Z,101282.00
2022-10-09T18:50:43.979Z,101288.20
2022-10-09T18:53:20.785Z,101287.20
2022-10-09T18:55:57.775Z,101286.00
2022-10-09T18:58:34.750Z,101291.20
2022-10-09T19:01:12.239Z,101296.60
2022-10-09T19:03:50.161Z,101297.20
2022-10-09T19:06:27.140Z,101300.00
2022-10-09T19:09:04.157Z,101292.60
2022-10-09T19:11:42.147Z,101298.40
2022-10-09T19:14:18.662Z,101302.40
2022-10-09T19:16:55.047Z,101304.60
2022-10-09T19:19:32.635Z,101303.20
2022-10-09T19:22:11.672Z,101305.40
2022-10-09T19:24:51.029Z,101308.60
2022-10-09T19:27:27.369Z,101305.40
2022-10-09T19:30:04.170Z,101308.40
2022-10-09T19:32:40.586Z,101308.20
2022-10-09T19:35:18.013Z,101306.00
2022-10-09T19:37:55.645Z,101311.20
2022-10-09T19:40:32.386Z,101309.40
2022-10-09T19:43:09.087Z,101308.60
2022-10-09T19:45:49.045Z,101311.60
2022-10-09T19:48:25.769Z,101308.80
2022-10-09T19:51:06.995Z,101315.00
2022-10-09T19:53:43.815Z,101314.60
2022-10-09T19:56:24.258Z,101317.40
2022-10-09T19:59:02.296Z,101324.80
2022-10-09T20:01:41.792Z,101324.60
2022-10-09T20:04:17.694Z,101322.20
2022-10-09T20:06:54.506Z,101321.80
2022-10-09T20:09:34.702Z,101325.40
2022-10-09T20:12:12.566Z,101329.60
2022-10-09T20:14:48.683Z,101334.80
2022-10-09T20:17:25.504Z,101336.80
2022-10-09T20:20:01.743Z,101337.40
2022-10-09T20:22:38.249Z,101343.40
2022-10-09T20:25:18.109Z,101342.00
2022-10-09T20:27:55.035Z,101347.80
2022-10-09T20:30:30.706Z,101336.80
2022-10-09T20:33:08.445Z,101337.80
2022-10-09T20:35:51.088Z,101341.80
2022-10-09T20:38:28.667Z,101345.80
2022-10-09T20:41:11.848Z,101355.00
2022-10-09T20:43:52.238Z,101354.00
2022-10-09T20:46:30.160Z,101358.00
2022-10-09T20:49:08.396Z,101357.60
2022-10-09T20:51:44.907Z,101359.80
2022-10-09T20:54:23.564Z,101359.00
2022-10-09T20:57:00.291Z,101350.40
2022-10-09T20:59:36.690Z,101354.00
2022-10-09T21:02:15.090Z,101362.00
2022-10-09T21:04:53.236Z,101357.40
2022-10-09T21:07:29.864Z,101361.20
2022-10-09T21:10:06.311Z,101362.40
2022-10-09T21:12:42.895Z,101364.20
2022-10-09T21:15:23.253Z,101359.20
2022-10-09T21:18:00.764Z,101356.60
2022-10-09T21:20:41.388Z,101353.60
2022-10-09T21:23:19.273Z,101360.20
2022-10-09T21:25:57.172Z,101351.40
2022-10-09T21:28:33.924Z,101347.60
2022-10-09T21:31:15.971Z,101354.20
2022-10-09T21:33:52.863Z,101344.40
2022-10-09T21:36:37.530Z,101348.00
2022-10-09T21:39:14.859Z,101341.80
2022-10-09T21:41:51.839Z,101335.80
2022-10-09T21:44:29.505Z,101340.40
2022-10-09T21:47:06.214Z,101339.40
2022-10-09T21:49:43.518Z,101347.60
2022-10-09T21:52:19.794Z,101338.80
2022-10-09T21:54:56.626Z,101339.60
2022-10-09T21:57:33.371Z,101336.80
2022-10-09T22:00:16.063Z,101336.80
2022-10-09T22:02:53.571Z,101338.80
2022-10-09T22:05:30.679Z,101341.00
2022-10-09T22:08:07.061Z,101339.60
2022-10-09T22:10:45.407Z,101340.20
2022-10-09T22:13:22.153Z,101340.40
2022-10-09T22:15:58.219Z,101337.40
2022-10-09T22:18:34.938Z,101336.80
2022-10-09T22:21:15.723Z,101334.00
2022-10-09T22:23:52.101Z,101339.00
2022-10-09T22:26:28.991Z,101336.40
2022-10-09T22:29:06.204Z,101339.80
2022-10-09T22:31:42.021Z,101335.20
2022-10-09T22:34:18.890Z,101331.60
2022-10-09T22:36:55.225Z,101331.40
2022-10-09T22:39:31.948Z,101328.00
2022-10-09T22:42:09.209Z,101322.20
2022-10-09T22:44:45.805Z,101324.20
2022-10-09T22:47:23.037Z,101317.60
2022-10-09T22:49:59.456Z,101318.00
2022-10-09T22:52:36.066Z,101313.20
2022-10-09T22:55:15.526Z,101313.20
2022-10-09T22:57:52.632Z,101309.40
2022-10-09T23:00:29.285Z,101309.80
2022-10-09T23:03:05.961Z,101302.00
2022-10-09T23:05:41.823Z,101300.40
2022-10-09T23:08:18.180Z,101296.00
2022-10-09T23:10:54.971Z,101286.60
2022-10-09T23:13:32.303Z,101288.00
2022-10-09T23:16:12.857Z,101289.40
2022-10-09T23:18:49.993Z,101287.80
2022-10-09T23:21:30.075Z,101286.60
2022-10-09T23:24:07.045Z,101292.00
2022-10-09T23:26:44.852Z,101293.40
2022-10-09T23:29:24.380Z,101283.40
2022-10-09T23:32:01.810Z,101276.40
2022-10-09T23:34:38.710Z,101277.40
2022-10-09T23:37:15.814Z,101278.80
2022-10-09T23:39:52.912Z,101279.40
2022-10-09T23:42:29.516Z,101281.40
2022-10-09T23:45:07.028Z,101279.60
2022-10-09T23:47:44.175Z,101278.80
2022-10-09T23:50:21.358Z,101282.20
2022-10-09T23:52:58.310Z,101276.00
2022-10-09T23:55:34.704Z,101276.60
2022-10-09T23:58:11.349Z,101278.00
